Time;durP1;ratioP1;P1;durP2;ratioP2;P2;SDS_P1;SDS_P2;PMS_P1;PMS_P2;Temp;Humidity;BMP_temperature;BMP_pressure;BME280_temperature;BME280_humidity;BME280_pressure;Samples;Min_cycle;Max_cycle;Signal;HPM_P1;HPM_P2
2021/11/07 00:02:49;;;;;;;0.20;0.20;;;5.00;99.90;;;;;;5094848;28;20035;-67
2021/11/07 00:08:41;;;;;;;1.65;1.55;;;5.00;99.90;;;;;;5094272;28;20576;-68
2021/11/07 00:11:32;;;;;;;0.28;0.28;;;5.00;99.90;;;;;;5096564;28;20043;-68
2021/11/07 00:14:17;;;;;;;0.45;0.45;;;5.00;99.90;;;;;;5094283;28;20392;-68
2021/11/07 00:17:01;;;;;;;0.68;0.68;;;5.00;99.90;;;;;;5094929;28;20054;-68
2021/11/07 00:19:49;;;;;;;2.00;1.85;;;5.00;99.90;;;;;;5079709;28;20077;-69
2021/11/07 00:25:44;;;;;;;1.88;1.73;;;5.00;99.90;;;;;;5094208;28;20043;-67
2021/11/07 00:28:36;;;;;;;3.20;1.48;;;5.00;99.90;;;;;;5094109;28;20494;-68
2021/11/07 00:31:36;;;;;;;1.27;1.10;;;5.00;99.90;;;;;;5093969;28;20533;-68
2021/11/07 00:37:11;;;;;;;1.95;0.93;;;5.00;99.90;;;;;;5094374;28;20035;-68
2021/11/07 00:40:08;;;;;;;0.50;0.50;;;5.00;99.90;;;;;;5093760;28;20443;-68
2021/11/07 00:43:35;;;;;;;0.08;0.08;;;5.00;99.90;;;;;;5093787;28;20035;-68
2021/11/07 00:49:07;;;;;;;0.35;0.35;;;5.00;99.90;;;;;;5094273;28;20132;-68
2021/11/07 01:03:19;;;;;;;0.22;0.22;;;5.00;99.90;;;;;;5093456;28;20093;-69
2021/11/07 01:06:04;;;;;;;1.20;1.13;;;5.10;99.90;;;;;;5093241;28;20419;-68
2021/11/07 01:08:48;;;;;;;0.40;0.40;;;5.10;99.90;;;;;;5093167;28;20039;-68
2021/11/07 01:11:33;;;;;;;1.00;0.88;;;5.10;99.90;;;;;;5094209;28;20061;-66
2021/11/07 01:14:17;;;;;;;0.10;0.10;;;5.10;99.90;;;;;;5093082;28;20051;-69
2021/11/07 01:17:02;;;;;;;0.85;0.85;;;5.10;99.90;;;;;;5093833;28;20035;-66
2021/11/07 01:19:48;;;;;;;2.00;1.05;;;5.10;99.90;;;;;;5093791;28;20039;-67
2021/11/07 01:25:33;;;;;;;0.52;0.52;;;5.10;99.90;;;;;;5093812;28;20054;-68
2021/11/07 01:28:18;;;;;;;0.10;0.10;;;5.10;99.90;;;;;;5093413;28;20051;-67
2021/11/07 01:31:03;;;;;;;0.20;0.20;;;5.10;99.90;;;;;;5092878;28;20098;-67
2021/11/07 01:33:48;;;;;;;0.57;0.50;;;5.10;99.90;;;;;;5092811;28;20039;-67
2021/11/07 01:36:57;;;;;;;0.10;0.10;;;5.10;99.90;;;;;;5093858;28;20031;-68
2021/11/07 01:40:04;;;;;;;0.90;0.90;;;5.10;99.90;;;;;;5092996;28;20039;-68
2021/11/07 01:42:58;;;;;;;0.55;0.55;;;5.00;99.90;;;;;;5092440;28;20031;-68
2021/11/07 01:45:48;;;;;;;2.65;0.98;;;5.00;99.90;;;;;;5106914;28;20047;-68
2021/11/07 01:48:40;;;;;;;3.42;1.70;;;5.00;99.90;;;;;;5093404;28;20042;-68
2021/11/07 01:51:26;;;;;;;;;;;5.00;99.90;;;;;;5092976;28;20059;-67
2021/11/07 01:54:21;;;;;;;1.10;0.80;;;5.00;99.90;;;;;;5099072;28;19957;-68
2021/11/07 01:57:05;;;;;;;0.20;0.20;;;4.90;99.90;;;;;;5092230;28;20051;-68
2021/11/07 01:59:57;;;;;;;4.00;3.63;;;5.00;99.90;;;;;;5077975;28;20094;-68
2021/11/07 02:02:42;;;;;;;0.63;0.63;;;5.00;99.90;;;;;;5093249;28;20075;-68
2021/11/07 02:05:27;;;;;;;0.10;0.10;;;4.90;99.90;;;;;;5091915;28;20058;-68
2021/11/07 02:08:11;;;;;;;6.63;2.53;;;4.90;99.90;;;;;;5092001;28;20101;-67
2021/11/07 02:10:57;;;;;;;0.63;0.63;;;4.90;99.90;;;;;;5092025;28;20042;-68
2021/11/07 02:13:42;;;;;;;1.02;1.02;;;4.80;99.90;;;;;;5093008;28;20042;-68
2021/11/07 02:16:27;;;;;;;0.15;0.15;;;4.70;99.90;;;;;;5092105;28;20393;-68
2021/11/07 02:19:15;;;;;;;1.17;1.08;;;4.70;99.90;;;;;;5091674;28;20109;-68
2021/11/07 02:22:00;;;;;;;0.10;0.10;;;4.70;99.90;;;;;;5092637;28;20046;-68
2021/11/07 02:24:44;;;;;;;1.52;1.42;;;4.60;99.90;;;;;;5091920;28;20130;-67
2021/11/07 02:27:28;;;;;;;0.25;0.25;;;4.60;99.90;;;;;;5092861;28;20385;-67
2021/11/07 02:30:15;;;;;;;0.75;0.75;;;4.60;99.90;;;;;;5092837;28;20046;-67
2021/11/07 02:33:00;;;;;;;2.08;1.00;;;4.50;99.90;;;;;;5092688;28;20096;-68
2021/11/07 02:35:45;;;;;;;3.33;0.82;;;4.50;99.90;;;;;;5091819;28;20111;-67
2021/11/07 02:38:29;;;;;;;0.30;0.30;;;4.50;99.90;;;;;;5091517;28;20042;-67
2021/11/07 02:41:15;;;;;;;0.68;0.68;;;4.40;99.90;;;;;;5092681;28;20565;-67
2021/11/07 02:43:59;;;;;;;1.75;1.65;;;4.50;99.90;;;;;;5091501;28;20035;-67
2021/11/07 02:46:43;;;;;;;1.30;1.00;;;4.40;99.90;;;;;;5092706;28;20541;-68
2021/11/07 02:49:28;;;;;;;0.68;0.68;;;4.50;99.90;;;;;;5091603;28;20112;-68
2021/11/07 02:52:15;;;;;;;0.52;0.52;;;4.50;99.90;;;;;;5091523;28;20039;-67
2021/11/07 02:54:59;;;;;;;0.10;0.10;;;4.50;99.90;;;;;;5091805;28;20067;-68
2021/11/07 02:57:47;;;;;;;0.00;0.00;;;4.50;99.90;;;;;;5093803;28;20039;-68
2021/11/07 03:00:34;;;;;;;1.23;1.17;;;4.50;99.90;;;;;;5095828;28;20082;-68
2021/11/07 03:03:18;;;;;;;0.10;0.10;;;4.50;99.90;;;;;;5096954;28;20101;-68
2021/11/07 03:06:03;;;;;;;0.10;0.10;;;4.50;99.90;;;;;;5096632;28;20446;-68
2021/11/07 03:08:50;;;;;;;0.55;0.55;;;4.40;99.90;;;;;;5096884;28;20424;-68
2021/11/07 03:11:40;;;;;;;1.45;0.93;;;4.40;99.90;;;;;;5095641;28;20042;-68
2021/11/07 03:14:30;;;;;;;0.63;0.63;;;4.40;99.90;;;;;;5095521;28;20399;-68
2021/11/07 03:17:20;;;;;;;0.43;0.43;;;4.50;99.90;;;;;;5096071;28;20518;-67
2021/11/07 03:20:08;;;;;;;1.40;0.90;;;4.40;99.90;;;;;;5094985;28;20086;-68
2021/11/07 03:22:53;;;;;;;0.55;0.55;;;4.50;99.90;;;;;;5095612;28;20384;-68
2021/11/07 03:25:47;;;;;;;1.50;1.40;;;4.50;99.90;;;;;;5096343;28;20047;-68
2021/11/07 03:28:32;;;;;;;0.77;0.77;;;4.40;99.90;;;;;;5095517;28;20173;-68
2021/11/07 03:31:24;;;;;;;0.65;0.65;;;4.50;99.90;;;;;;5095067;28;20039;-68
2021/11/07 03:34:16;;;;;;;0.30;0.30;;;4.50;99.90;;;;;;5095045;28;20115;-67
2021/11/07 03:37:05;;;;;;;0.70;0.70;;;4.50;99.90;;;;;;5095035;28;20158;-68
2021/11/07 03:39:54;;;;;;;0.70;0.43;;;4.60;99.90;;;;;;5096039;28;20047;-67
2021/11/07 03:42:38;;;;;;;0.25;0.25;;;4.60;99.90;;;;;;5096333;28;20058;-68
2021/11/07 03:45:23;;;;;;;0.85;0.85;;;4.60;99.90;;;;;;5095613;28;20569;-68
2021/11/07 03:48:08;;;;;;;0.30;0.30;;;4.60;99.90;;;;;;5095045;28;20080;-67
2021/11/07 03:50:53;;;;;;;0.38;0.38;;;4.60;99.90;;;;;;5095846;28;20495;-68
2021/11/07 03:53:38;;;;;;;0.93;0.93;;;4.70;99.90;;;;;;5094716;28;20071;-67
2021/11/07 03:56:23;;;;;;;1.63;1.55;;;4.70;99.90;;;;;;5094906;28;20075;-68
2021/11/07 03:59:08;;;;;;;2.03;1.88;;;4.70;99.90;;;;;;5095519;28;20156;-68
2021/11/07 04:01:52;;;;;;;0.10;0.10;;;4.70;99.90;;;;;;5094611;28;20043;-68
2021/11/07 04:04:39;;;;;;;0.57;0.57;;;4.80;99.90;;;;;;5094490;28;20043;-68
2021/11/07 04:07:23;;;;;;;2.70;2.17;;;4.80;99.90;;;;;;5095908;28;20065;-68
2021/11/07 04:10:11;;;;;;;0.35;0.35;;;4.80;99.90;;;;;;5094365;28;20047;-68
2021/11/07 04:12:56;;;;;;;0.10;0.10;;;4.90;99.90;;;;;;5094655;28;20460;-68
2021/11/07 04:15:42;;;;;;;3.72;2.10;;;4.90;99.90;;;;;;5095601;28;20047;-68
2021/11/07 04:18:26;;;;;;;9.55;3.65;;;4.90;99.90;;;;;;5094969;28;20435;-68
2021/11/07 04:21:13;;;;;;;0.30;0.30;;;4.90;99.90;;;;;;5097282;28;20089;-68
2021/11/07 04:23:57;;;;;;;1.27;0.80;;;4.90;99.90;;;;;;5094222;28;20105;-68
2021/11/07 04:26:41;;;;;;;6.32;1.27;;;4.90;99.90;;;;;;5095074;28;20066;-68
2021/11/07 04:29:27;;;;;;;0.95;0.95;;;5.00;99.90;;;;;;5094110;28;20075;-68
2021/11/07 04:32:11;;;;;;;0.80;0.80;;;5.00;99.90;;;;;;5093983;28;20082;-68
2021/11/07 04:34:56;;;;;;;0.45;0.45;;;5.00;99.90;;;;;;5094869;28;20105;-68
2021/11/07 04:37:43;;;;;;;1.00;0.75;;;5.10;99.90;;;;;;5093875;28;20093;-68
2021/11/07 04:40:27;;;;;;;0.20;0.20;;;5.10;99.90;;;;;;5094478;28;20491;-68
2021/11/07 04:43:13;;;;;;;0.80;0.57;;;5.20;99.90;;;;;;5093727;28;20117;-68
2021/11/07 04:45:58;;;;;;;1.13;1.08;;;5.20;99.90;;;;;;5093704;28;20043;-68
2021/11/07 04:48:47;;;;;;;1.27;1.20;;;5.30;99.90;;;;;;5093704;28;20582;-68
2021/11/07 04:51:32;;;;;;;1.65;1.55;;;5.30;99.90;;;;;;5093763;28;20499;-68
2021/11/07 04:54:16;;;;;;;0.20;0.20;;;5.30;99.90;;;;;;5093120;28;20404;-68
2021/11/07 04:57:00;;;;;;;0.80;0.80;;;5.40;99.90;;;;;;5093367;28;20043;-68
2021/11/07 04:59:47;;;;;;;0.10;0.10;;;5.40;99.90;;;;;;5093517;28;20039;-68
2021/11/07 05:02:32;;;;;;;0.28;0.28;;;5.50;99.90;;;;;;5094483;28;20043;-68
2021/11/07 05:05:19;;;;;;;0.10;0.10;;;5.50;99.90;;;;;;5094182;28;20165;-68
2021/11/07 05:08:04;;;;;;;0.85;0.85;;;5.50;99.90;;;;;;5093247;28;20356;-68
2021/11/07 05:10:50;;;;;;;1.25;1.13;;;5.60;99.90;;;;;;5093268;28;20127;-68
2021/11/07 05:13:34;;;;;;;0.10;0.10;;;5.60;99.90;;;;;;5093183;28;20576;-68
2021/11/07 05:16:19;;;;;;;1.15;0.73;;;5.60;99.90;;;;;;5094019;28;20114;-68
2021/11/07 05:19:04;;;;;;;0.20;0.20;;;5.70;99.90;;;;;;5092616;28;20050;-68
2021/11/07 05:21:49;;;;;;;1.20;1.17;;;5.70;99.90;;;;;;5093628;28;20051;-68
2021/11/07 05:24:34;;;;;;;0.28;0.28;;;5.70;99.90;;;;;;5094053;28;20047;-68
2021/11/07 05:27:19;;;;;;;0.20;0.20;;;5.70;99.90;;;;;;5094146;28;20385;-68
2021/11/07 05:30:08;;;;;;;0.98;0.98;;;5.70;99.90;;;;;;5093490;28;20043;-68
2021/11/07 05:32:52;;;;;;;0.77;0.77;;;5.70;99.90;;;;;;5093897;28;20086;-68
2021/11/07 05:35:36;;;;;;;0.57;0.57;;;5.70;99.90;;;;;;5093739;28;20093;-68
2021/11/07 05:38:21;;;;;;;0.10;0.10;;;5.70;99.90;;;;;;5092436;28;20190;-68
2021/11/07 05:41:06;;;;;;;0.93;0.93;;;5.70;99.90;;;;;;5093575;28;20036;-68
2021/11/07 05:43:50;;;;;;;0.43;0.43;;;5.70;99.90;;;;;;5093665;28;20039;-68
2021/11/07 05:46:35;;;;;;;0.50;0.50;;;5.70;99.90;;;;;;5093580;28;20035;-68
2021/11/07 05:49:21;;;;;;;0.75;0.70;;;5.70;99.90;;;;;;5093486;28;20065;-68
2021/11/07 05:52:05;;;;;;;1.00;0.98;;;5.70;99.90;;;;;;5093582;28;20542;-68
2021/11/07 05:54:50;;;;;;;1.55;0.73;;;5.70;99.90;;;;;;5092495;28;20465;-68
2021/11/07 05:57:34;;;;;;;1.20;1.10;;;5.70;99.90;;;;;;5092254;28;20067;-68
2021/11/07 06:00:19;;;;;;;0.17;0.17;;;5.70;99.90;;;;;;5092177;28;20116;-68
2021/11/07 06:03:06;;;;;;;0.40;0.40;;;5.70;99.90;;;;;;5092112;28;20092;-72
2021/11/07 06:05:51;;;;;;;2.30;2.10;;;5.60;99.90;;;;;;5093430;28;20169;-71
2021/11/07 06:08:35;;;;;;;0.10;0.10;;;5.60;99.90;;;;;;5092373;28;20089;-70
2021/11/07 06:11:20;;;;;;;0.20;0.20;;;5.60;99.90;;;;;;5093409;28;20054;-71
2021/11/07 06:14:04;;;;;;;0.40;0.40;;;5.60;99.90;;;;;;5092890;28;20047;-70
2021/11/07 06:16:49;;;;;;;5.57;2.55;;;5.60;99.90;;;;;;5092951;28;20495;-70
2021/11/07 06:19:34;;;;;;;0.35;0.35;;;5.60;99.90;;;;;;5092095;28;20240;-71
2021/11/07 06:22:19;;;;;;;0.28;0.28;;;5.50;99.90;;;;;;5091866;28;20038;-72
2021/11/07 06:25:04;;;;;;;1.25;1.17;;;5.50;99.90;;;;;;5092070;28;20041;-72
2021/11/07 06:27:49;;;;;;;5.95;1.77;;;5.50;99.90;;;;;;5092877;28;20050;-71
2021/11/07 06:30:35;;;;;;;1.17;1.10;;;5.50;99.90;;;;;;5092850;28;20092;-71
2021/11/07 06:33:20;;;;;;;4.68;1.55;;;5.50;99.90;;;;;;5091472;28;20113;-71
2021/11/07 06:36:05;;;;;;;0.30;0.30;;;5.40;99.90;;;;;;5093080;28;20043;-70
2021/11/07 06:38:49;;;;;;;0.73;0.45;;;5.40;99.90;;;;;;5092494;28;20059;-70
2021/11/07 06:41:34;;;;;;;3.28;3.03;;;5.40;99.90;;;;;;5092879;28;20445;-71
2021/11/07 06:44:18;;;;;;;0.20;0.20;;;5.40;99.90;;;;;;5091671;28;20492;-70
2021/11/07 06:47:04;;;;;;;0.52;0.52;;;5.50;99.90;;;;;;5092664;28;20434;-70
2021/11/07 06:49:49;;;;;;;0.52;0.52;;;5.40;99.90;;;;;;5091611;28;20051;-70
2021/11/07 06:52:34;;;;;;;0.10;0.10;;;5.40;99.90;;;;;;5091652;28;20101;-70
2021/11/07 06:55:18;;;;;;;0.45;0.45;;;5.50;99.90;;;;;;5091465;28;20062;-71
2021/11/07 06:58:03;;;;;;;0.20;0.20;;;5.50;99.90;;;;;;5092372;28;20043;-71
2021/11/07 07:00:48;;;;;;;10.38;2.05;;;5.50;99.90;;;;;;5092926;28;20065;-71
2021/11/07 07:03:33;;;;;;;3.28;1.52;;;5.50;99.90;;;;;;5092254;28;20514;-71
2021/11/07 07:06:17;;;;;;;3.38;1.48;;;5.50;99.90;;;;;;5092621;28;20173;-69
2021/11/07 07:09:09;;;;;;;0.68;0.40;;;5.50;99.90;;;;;;5092539;28;20090;-69
2021/11/07 07:12:05;;;;;;;7.57;1.88;;;5.50;99.90;;;;;;5091320;28;20035;-69
2021/11/07 07:15:12;;;;;;;0.38;0.38;;;5.50;99.90;;;;;;5091434;28;20101;-69
2021/11/07 07:21:16;;;;;;;0.50;0.50;;;5.60;99.90;;;;;;5091960;28;20101;-69
2021/11/07 07:35:28;;;;;;;0.20;0.20;;;5.70;99.90;;;;;;5092174;28;20388;-69
2021/11/07 07:38:13;;;;;;;0.15;0.15;;;5.70;99.90;;;;;;5091898;28;20524;-69
2021/11/07 07:40:59;;;;;;;0.52;0.52;;;5.70;99.90;;;;;;5091208;28;20526;-69
2021/11/07 07:43:43;;;;;;;0.50;0.50;;;5.70;99.90;;;;;;5093275;28;20038;-69
2021/11/07 07:46:28;;;;;;;0.17;0.17;;;5.80;99.90;;;;;;5095806;28;20050;-70
2021/11/07 07:49:16;;;;;;;0.15;0.15;;;5.80;99.90;;;;;;5096094;28;20498;-69
2021/11/07 07:52:04;;;;;;;0.20;0.20;;;5.80;99.90;;;;;;5095772;28;20047;-69
2021/11/07 07:54:49;;;;;;;0.30;0.30;;;5.90;99.90;;;;;;5094693;28;20043;-68
2021/11/07 07:57:35;;;;;;;0.38;0.38;;;5.80;99.90;;;;;;5094753;28;20137;-80
2021/11/07 08:00:21;;;;;;;0.22;0.22;;;5.80;99.90;;;;;;5095506;28;20066;-71
2021/11/07 08:03:08;;;;;;;0.10;0.10;;;5.80;99.90;;;;;;5094551;28;20089;-71
2021/11/07 08:05:53;;;;;;;0.98;0.98;;;5.80;99.90;;;;;;5095917;28;20047;-71
2021/11/07 08:08:38;;;;;;;0.10;0.10;;;5.80;99.90;;;;;;5094502;28;20051;-70
2021/11/07 08:11:23;;;;;;;0.10;0.10;;;5.90;99.90;;;;;;5095165;28;20042;-71
2021/11/07 08:14:08;;;;;;;1.75;0.47;;;5.90;99.90;;;;;;5094370;28;20055;-71
2021/11/07 08:16:53;;;;;;;0.45;0.45;;;5.90;99.90;;;;;;5095336;28;20124;-71
2021/11/07 08:19:37;;;;;;;0.63;0.63;;;5.90;99.90;;;;;;5095081;28;20128;-71
2021/11/07 08:22:22;;;;;;;1.88;1.45;;;5.90;99.90;;;;;;5095025;28;20114;-70
2021/11/07 08:25:13;;;;;;;0.00;0.00;;;5.90;99.90;;;;;;5095182;28;20046;-70
2021/11/07 08:28:04;;;;;;;0.35;0.35;;;5.80;99.90;;;;;;5095156;28;20047;-70
2021/11/07 08:30:53;;;;;;;0.30;0.30;;;5.80;99.90;;;;;;5095107;28;20055;-70
2021/11/07 08:33:39;;;;;;;4.20;1.15;;;5.80;99.90;;;;;;5094245;28;20097;-73
2021/11/07 08:36:37;;;;;;;0.10;0.10;;;5.80;99.90;;;;;;5094961;28;20043;-71
2021/11/07 08:42:32;;;;;;;0.10;0.10;;;5.90;99.90;;;;;;5094711;28;20098;-71
2021/11/07 09:00:29;;;;;;;2.85;1.02;;;6.20;99.90;;;;;;5073880;28;20139;-71
2021/11/07 09:03:17;;;;;;;0.43;0.43;;;6.20;99.90;;;;;;5086592;28;20043;-71
2021/11/07 09:06:21;;;;;;;0.40;0.40;;;6.30;99.90;;;;;;5094404;28;20043;-72
2021/11/07 09:09:12;;;;;;;0.20;0.20;;;6.30;99.90;;;;;;5093171;28;20074;-71
2021/11/07 09:11:58;;;;;;;0.88;0.88;;;6.40;99.90;;;;;;5094222;28;20034;-70
2021/11/07 09:14:43;;;;;;;0.15;0.15;;;6.40;99.90;;;;;;5072851;28;20508;-69
2021/11/07 09:17:27;;;;;;;0.75;0.75;;;6.40;99.90;;;;;;5072613;28;20043;-70
2021/11/07 09:20:19;;;;;;;0.17;0.17;;;6.40;99.90;;;;;;5073663;28;20171;-71
2021/11/07 09:23:13;;;;;;;0.68;0.68;;;6.50;99.90;;;;;;5086048;28;20055;-71
2021/11/07 09:31:44;;;;;;;0.13;0.13;;;6.50;99.90;;;;;;5092555;28;20054;-70
2021/11/07 09:34:52;;;;;;;0.40;0.40;;;6.50;99.90;;;;;;5092421;28;20077;-69
2021/11/07 09:40:25;;;;;;;0.43;0.43;;;6.70;99.90;;;;;;5092198;28;20035;-69
2021/11/07 09:46:30;;;;;;;0.10;0.10;;;6.70;99.90;;;;;;5092325;28;20124;-69
2021/11/07 09:49:17;;;;;;;0.20;0.20;;;6.70;99.90;;;;;;5092422;28;20113;-69
2021/11/07 09:52:13;;;;;;;3.13;2.03;;;6.70;99.90;;;;;;5092535;28;20404;-68
2021/11/07 09:54:59;;;;;;;0.40;0.40;;;6.70;99.90;;;;;;5093274;28;20070;-76
2021/11/07 09:57:44;;;;;;;0.30;0.30;;;6.70;99.90;;;;;;5092118;28;20464;-74
2021/11/07 10:00:42;;;;;;;0.10;0.10;;;6.70;99.90;;;;;;5093366;28;20526;-74
2021/11/07 10:03:28;;;;;;;1.25;1.20;;;6.80;99.90;;;;;;5092116;28;20036;-75
2021/11/07 10:06:35;;;;;;;0.10;0.10;;;6.80;99.90;;;;;;5093592;28;20039;-75
2021/11/07 10:09:38;;;;;;;0.73;0.70;;;6.80;99.90;;;;;;5092035;28;20412;-75
2021/11/07 10:12:45;;;;;;;0.10;0.10;;;6.90;99.90;;;;;;5092864;28;20057;-74
2021/11/07 10:15:46;;;;;;;0.10;0.10;;;6.90;99.90;;;;;;5091858;28;20127;-75
2021/11/07 10:18:55;;;;;;;0.10;0.10;;;6.90;99.90;;;;;;5091598;28;20086;-74
2021/11/07 10:21:48;;;;;;;0.20;0.20;;;6.90;99.90;;;;;;5079706;28;20066;-73
2021/11/07 10:24:37;;;;;;;0.28;0.28;;;6.80;99.90;;;;;;5092566;28;20098;-74
2021/11/07 10:27:22;;;;;;;0.00;0.00;;;6.80;99.90;;;;;;5077937;28;20042;-72
2021/11/07 10:30:16;;;;;;;0.00;0.00;;;6.80;99.90;;;;;;5092795;28;20039;-74
2021/11/07 10:33:07;;;;;;;0.00;0.00;;;6.90;99.90;;;;;;5091724;28;20046;-74
2021/11/07 10:53:27;;;;;;;0.10;0.10;;;7.40;99.90;;;;;;5091236;28;20081;-74
2021/11/07 10:56:13;;;;;;;0.20;0.20;;;7.40;99.90;;;;;;5092413;28;20046;-74
2021/11/07 10:59:15;;;;;;;0.75;0.75;;;7.50;99.90;;;;;;5091918;28;20422;-74
2021/11/07 11:02:01;;;;;;;0.10;0.10;;;7.50;99.90;;;;;;5092545;28;20043;-74
2021/11/07 11:05:02;;;;;;;0.00;0.00;;;7.60;99.90;;;;;;5091889;28;20043;-74
2021/11/07 11:07:49;;;;;;;0.00;0.00;;;7.60;99.90;;;;;;5091243;28;20087;-74
2021/11/07 11:11:03;;;;;;;0.10;0.10;;;7.60;99.90;;;;;;5092146;28;20043;-74
2021/11/07 11:20:02;;;;;;;0.00;0.00;;;7.60;99.90;;;;;;5094678;28;20100;-72
2021/11/07 11:23:23;;;;;;;0.15;0.15;;;7.50;99.90;;;;;;5096438;28;20035;-74
2021/11/07 11:26:46;;;;;;;0.17;0.17;;;7.50;99.90;;;;;;5095757;28;20051;-74
2021/11/07 11:29:38;;;;;;;0.43;0.43;;;7.60;99.90;;;;;;5096026;28;20036;-74
2021/11/07 11:35:36;;;;;;;0.10;0.10;;;7.60;99.90;;;;;;5095792;28;20039;-73
2021/11/07 11:41:09;;;;;;;0.10;0.10;;;7.60;99.90;;;;;;5094578;28;20035;-73
2021/11/07 11:43:55;;;;;;;0.00;0.00;;;7.60;99.90;;;;;;5081642;28;20496;-72
2021/11/07 11:46:57;;;;;;;0.20;0.20;;;7.70;99.90;;;;;;5095676;28;20039;-72
2021/11/07 12:01:46;;;;;;;0.00;0.00;;;8.00;99.90;;;;;;5095558;28;20054;-73
2021/11/07 12:04:37;;;;;;;0.00;0.00;;;8.10;99.90;;;;;;5094471;28;20141;-73
2021/11/07 12:07:25;;;;;;;0.00;0.00;;;8.20;99.90;;;;;;5095509;28;20035;-72
2021/11/07 12:13:48;;;;;;;0.00;0.00;;;8.40;99.90;;;;;;5094008;28;20147;-72
2021/11/07 12:16:58;;;;;;;3.00;0.88;;;8.40;99.90;;;;;;5094100;28;20043;-72
2021/11/07 12:19:44;;;;;;;0.00;0.00;;;8.50;99.90;;;;;;5108330;28;20043;-71
2021/11/07 12:22:33;;;;;;;0.32;0.32;;;8.50;99.90;;;;;;5093950;28;20446;-72
2021/11/07 12:25:19;;;;;;;1.15;0.65;;;8.60;99.90;;;;;;5093846;28;20085;-72
2021/11/07 12:28:04;;;;;;;0.00;0.00;;;8.60;99.90;;;;;;5094117;28;20101;-74
2021/11/07 12:31:10;;;;;;;0.10;0.10;;;8.60;99.90;;;;;;5092520;28;20070;-73
2021/11/07 12:34:10;;;;;;;1.15;0.63;;;8.70;99.90;;;;;;5107861;28;20046;-66
2021/11/07 12:43:24;;;;;;;0.10;0.10;;;8.90;99.90;;;;;;5094552;28;20070;-69
2021/11/07 12:49:30;;;;;;;0.00;0.00;;;9.00;99.90;;;;;;5093615;28;20105;-68
2021/11/07 12:52:16;;;;;;;0.00;0.00;;;8.90;99.90;;;;;;5093546;28;20388;-73
2021/11/07 12:55:01;;;;;;;0.10;0.10;;;9.00;99.90;;;;;;5093328;28;20180;-73
2021/11/07 12:57:45;;;;;;;0.10;0.10;;;9.10;99.90;;;;;;5086012;28;20051;-73
2021/11/07 13:00:30;;;;;;;0.00;0.00;;;9.10;99.90;;;;;;5074114;28;20051;-73
2021/11/07 13:03:17;;;;;;;0.00;0.00;;;9.20;99.90;;;;;;5074157;28;20044;-73
2021/11/07 13:06:02;;;;;;;0.15;0.15;;;9.30;99.90;;;;;;5087675;28;20682;-73
2021/11/07 13:08:55;;;;;;;0.35;0.30;;;9.40;99.90;;;;;;5093486;28;20063;-72
2021/11/07 13:11:43;;;;;;;0.00;0.00;;;9.20;99.90;;;;;;5092658;28;20047;-73
2021/11/07 13:14:50;;;;;;;0.00;0.00;;;9.20;99.90;;;;;;5094522;28;20484;-73
2021/11/07 13:17:53;;;;;;;0.15;0.15;;;9.20;99.90;;;;;;5093432;28;20043;-73
2021/11/07 13:29:48;;;;;;;0.00;0.00;;;9.40;99.90;;;;;;5092887;28;20035;-73
2021/11/07 13:32:37;;;;;;;0.10;0.10;;;9.80;99.90;;;;;;5093661;28;20458;-73
2021/11/07 13:35:24;;;;;;;0.10;0.10;;;9.60;99.90;;;;;;5093826;28;20039;-73
2021/11/07 13:38:13;;;;;;;0.00;0.00;;;9.60;99.90;;;;;;5093556;28;20042;-73
2021/11/07 13:40:58;;;;;;;0.40;0.40;;;9.40;99.90;;;;;;5078477;28;20039;-74
2021/11/07 13:44:04;;;;;;;0.00;0.00;;;9.30;99.90;;;;;;5092497;28;20123;-74
2021/11/07 13:46:53;;;;;;;0.30;0.30;;;9.10;99.90;;;;;;5092728;28;20046;-73
2021/11/07 13:49:53;;;;;;;0.35;0.35;;;9.00;99.90;;;;;;5093792;28;20372;-73
2021/11/07 13:52:41;;;;;;;0.32;0.32;;;8.90;99.90;;;;;;5093283;28;20047;-73
2021/11/07 13:55:32;;;;;;;0.00;0.00;;;8.80;99.90;;;;;;5093365;28;20047;-74
2021/11/07 13:58:27;;;;;;;0.10;0.10;;;8.80;99.90;;;;;;5092958;28;20039;-73
2021/11/07 14:01:14;;;;;;;0.00;0.00;;;8.80;99.90;;;;;;5092150;28;20043;-73
2021/11/07 14:03:59;;;;;;;0.00;0.00;;;8.80;99.90;;;;;;5092953;28;20089;-73
2021/11/07 14:06:43;;;;;;;0.13;0.10;;;8.80;99.90;;;;;;5093104;28;20108;-74
2021/11/07 14:09:28;;;;;;;0.00;0.00;;;8.80;99.90;;;;;;5092439;28;20129;-73
2021/11/07 14:12:47;;;;;;;0.57;0.57;;;8.70;99.90;;;;;;5093002;28;20108;-73
2021/11/07 14:15:36;;;;;;;0.52;0.52;;;8.70;99.90;;;;;;5092104;28;20119;-74
2021/11/07 14:18:28;;;;;;;0.22;0.22;;;8.70;99.90;;;;;;5091578;28;20043;-74
2021/11/07 14:21:16;;;;;;;0.05;0.05;;;8.80;99.90;;;;;;5077562;28;20408;-78
2021/11/07 14:26:53;;;;;;;0.03;0.03;;;8.70;99.90;;;;;;5092554;28;20055;-72
2021/11/07 14:29:41;;;;;;;0.80;0.80;;;8.70;99.90;;;;;;5092480;28;20069;-72
2021/11/07 14:32:40;;;;;;;0.10;0.10;;;8.70;99.90;;;;;;5092706;28;20043;-78
2021/11/07 14:35:28;;;;;;;0.00;0.00;;;8.80;99.90;;;;;;5091926;28;20543;-71
2021/11/07 14:38:19;;;;;;;0.57;0.57;;;8.70;99.90;;;;;;5091611;28;20111;-75
2021/11/07 14:41:20;;;;;;;0.05;0.05;;;8.80;99.90;;;;;;5091949;28;20115;-74
2021/11/07 14:44:18;;;;;;;0.00;0.00;;;8.80;99.90;;;;;;5106129;28;20039;-76
2021/11/07 14:47:19;;;;;;;0.00;0.00;;;8.70;99.90;;;;;;5091883;28;20043;-75
2021/11/07 15:02:53;;;;;;;0.03;0.03;;;8.60;99.90;;;;;;5063450;28;20106;-74
2021/11/07 15:05:58;;;;;;;0.00;0.00;;;8.60;99.90;;;;;;5072119;28;20543;-73
2021/11/07 15:08:54;;;;;;;0.73;0.73;;;8.60;99.90;;;;;;5076126;28;20519;-76
2021/11/07 15:11:56;;;;;;;0.35;0.35;;;8.60;99.90;;;;;;5078176;28;20054;-74
2021/11/07 15:17:38;;;;;;;0.00;0.00;;;8.60;99.90;;;;;;5091953;28;20089;-74
2021/11/07 15:23:39;;;;;;;0.00;0.00;;;8.70;99.90;;;;;;5090990;28;20031;-73
2021/11/07 15:26:39;;;;;;;0.08;0.08;;;8.70;99.90;;;;;;5091245;28;20177;-80
2021/11/07 15:29:32;;;;;;;0.17;0.17;;;8.60;99.90;;;;;;5092394;28;20042;-81
2021/11/07 15:32:17;;;;;;;0.00;0.00;;;8.50;99.90;;;;;;5092239;28;20077;-81
2021/11/07 15:35:25;;;;;;;0.00;0.00;;;8.60;99.90;;;;;;5091102;28;20043;-80
2021/11/07 15:38:15;;;;;;;0.28;0.28;;;8.50;99.90;;;;;;5077313;28;20082;-81
2021/11/07 15:41:09;;;;;;;0.28;0.28;;;8.50;99.90;;;;;;5076935;28;20109;-81
2021/11/07 15:43:55;;;;;;;0.00;0.00;;;8.50;99.90;;;;;;5091233;28;20121;-80
2021/11/07 15:46:42;;;;;;;0.00;0.00;;;8.50;99.90;;;;;;5092324;28;20047;-80
2021/11/07 15:49:27;;;;;;;0.05;0.05;;;8.50;99.90;;;;;;5091253;28;20555;-81
2021/11/07 15:52:30;;;;;;;0.00;0.00;;;8.50;99.90;;;;;;5091775;28;20054;-80
2021/11/07 16:01:19;;;;;;;0.00;0.00;;;8.40;99.90;;;;;;5092257;28;20094;-80
2021/11/07 16:07:21;;;;;;;0.03;0.03;;;8.30;99.90;;;;;;5109977;28;20042;-80
2021/11/07 16:10:15;;;;;;;0.00;0.00;;;8.30;99.90;;;;;;5108400;28;20078;-80
2021/11/07 16:13:07;;;;;;;0.00;0.00;;;8.20;99.90;;;;;;5085543;28;20035;-76
2021/11/07 16:16:15;;;;;;;0.20;0.20;;;8.20;99.90;;;;;;5118741;28;20054;-79
2021/11/07 16:19:01;;;;;;;0.20;0.20;;;8.20;99.90;;;;;;5104840;28;20089;-79
2021/11/07 16:21:49;;;;;;;0.55;0.55;;;8.20;99.90;;;;;;5102499;28;20046;-79
2021/11/07 16:24:34;;;;;;;0.10;0.10;;;8.20;99.90;;;;;;5101573;28;20127;-81
2021/11/07 16:27:22;;;;;;;0.00;0.00;;;8.20;99.90;;;;;;5094493;28;20162;-79
2021/11/07 16:30:07;;;;;;;0.00;0.00;;;8.20;99.90;;;;;;5094365;28;20043;-79
2021/11/07 16:39:01;;;;;;;0.10;0.10;;;8.10;99.90;;;;;;5095515;28;20045;-78
2021/11/07 16:41:50;;;;;;;0.20;0.20;;;8.10;99.90;;;;;;5096512;28;20396;-77
2021/11/07 16:44:37;;;;;;;5.30;0.65;;;8.00;99.90;;;;;;5093867;28;20153;-79
2021/11/07 16:47:26;;;;;;;0.32;0.32;;;8.00;99.90;;;;;;5097166;28;20043;-77
2021/11/07 16:50:12;;;;;;;0.00;0.00;;;8.00;99.90;;;;;;5104741;28;20527;-78
2021/11/07 16:53:00;;;;;;;0.68;0.68;;;7.90;99.90;;;;;;5093829;28;20039;-78
2021/11/07 16:55:52;;;;;;;0.00;0.00;;;7.90;99.90;;;;;;5093480;28;20561;-78
2021/11/07 17:02:01;;;;;;;0.20;0.20;;;7.90;99.90;;;;;;5093590;28;20051;-78
2021/11/07 17:05:09;;;;;;;0.03;0.03;;;7.90;99.90;;;;;;5096260;28;20078;-78
2021/11/07 17:08:04;;;;;;;0.00;0.00;;;7.90;99.90;;;;;;5093813;28;20059;-78
2021/11/07 17:10:49;;;;;;;0.30;0.30;;;7.90;99.90;;;;;;5093171;28;20097;-78
2021/11/07 17:13:34;;;;;;;0.00;0.00;;;7.90;99.90;;;;;;5094619;28;20043;-78
2021/11/07 17:16:26;;;;;;;0.20;0.20;;;7.80;99.90;;;;;;5092426;28;20135;-78
2021/11/07 17:19:12;;;;;;;0.30;0.30;;;7.80;99.90;;;;;;5093742;28;20039;-77
2021/11/07 17:30:29;;;;;;;0.00;0.00;;;7.60;99.90;;;;;;5072496;28;20068;-78
2021/11/07 17:36:21;;;;;;;0.10;0.10;;;7.50;99.90;;;;;;5072212;28;20185;-78
2021/11/07 17:57:20;;;;;;;0.22;0.22;;;7.60;99.90;;;;;;5072385;28;20043;-76
2021/11/07 18:00:18;;;;;;;0.10;0.10;;;7.50;99.90;;;;;;5071878;28;20132;-77
2021/11/07 18:03:03;;;;;;;0.13;0.13;;;7.40;99.90;;;;;;5072851;28;20508;-76
2021/11/07 18:05:49;;;;;;;0.30;0.30;;;7.40;99.90;;;;;;5072783;28;20046;-77
2021/11/07 18:08:38;;;;;;;0.10;0.10;;;7.40;99.90;;;;;;5073071;28;20077;-77
2021/11/07 18:11:27;;;;;;;0.30;0.30;;;7.40;99.90;;;;;;5071445;28;20101;-77
2021/11/07 18:14:12;;;;;;;3.30;1.60;;;7.30;99.90;;;;;;5071886;28;20106;-71
2021/11/07 18:16:56;;;;;;;0.00;0.00;;;7.30;99.90;;;;;;5072425;28;20043;-69
2021/11/07 18:19:42;;;;;;;0.45;0.45;;;7.30;99.90;;;;;;5071467;28;20052;-73